Time;durP1;ratioP1;P1;durP2;ratioP2;P2;SDS_P1;SDS_P2;PMS_P1;PMS_P2;Temp;Humidity;BMP_temperature;BMP_pressure;BME280_temperature;BME280_humidity;BME280_pressure;Samples;Min_cycle;Max_cycle;Signal;HPM_P1;HPM_P2
2022/01/10 00:00:52;;;;;;;52.72;24.13;;;;;;;-1.27;100.00;100898.94;4980401;28;20029;-88
2022/01/10 00:03:22;;;;;;;50.63;24.13;;;;;;;-1.31;100.00;100892.25;4979975;28;20035;-88
2022/01/10 00:05:50;;;;;;;51.10;25.15;;;;;;;-1.71;100.00;100839.88;4964049;28;20104;-88
2022/01/10 00:08:16;;;;;;;53.40;26.13;;;;;;;-0.99;100.00;100950.59;4977432;28;20496;-88
2022/01/10 00:10:50;;;;;;;58.95;26.10;;;;;;;-0.97;100.00;100956.63;4977979;28;20054;-88
2022/01/10 00:13:19;;;;;;;52.00;25.70;;;;;;;-1.61;100.00;100857.56;4961513;28;20495;-88
2022/01/10 00:15:46;;;;;;;54.22;25.70;;;;;;;-1.45;100.00;100881.00;4994019;28;20026;-88
2022/01/10 00:18:12;;;;;;;55.42;26.80;;;;;;;-1.13;100.00;100927.03;4976715;28;20490;-89
2022/01/10 00:20:37;;;;;;;54.78;27.15;;;;;;;-0.86;100.00;100978.78;4976613;28;20030;-88
2022/01/10 00:23:03;;;;;;;58.47;28.33;;;;;;;-1.49;100.00;100876.94;4960862;28;20037;-89
2022/01/10 00:25:30;;;;;;;61.05;27.77;;;;;;;-1.34;100.00;100906.66;4976696;28;20022;-88
2022/01/10 00:27:56;;;;;;;57.83;27.38;;;;;;;-1.64;100.00;100862.31;4976410;28;20076;-88
2022/01/10 00:30:23;;;;;;;61.70;27.85;;;;;;;-0.94;100.00;100982.16;4960397;28;20539;-88
2022/01/10 00:32:50;;;;;;;58.50;28.27;;;;;;;-1.18;100.00;100937.22;4976529;28;20395;-87
2022/01/10 00:35:16;;;;;;;58.70;27.95;;;;;;;-1.63;100.00;100871.97;4976659;28;20628;-88
2022/01/10 00:37:43;;;;;;;63.88;28.05;;;;;;;-0.95;100.00;100983.97;4976013;28;20121;-88
2022/01/10 00:40:11;;;;;;;66.90;27.77;;;;;;;-1.26;100.00;100937.91;4976402;28;20065;-88
2022/01/10 00:42:40;;;;;;;56.08;27.73;;;;;;;-1.08;100.00;100978.91;4976504;28;20384;-88
2022/01/10 00:45:23;;;;;;;62.78;28.10;;;;;;;-1.80;100.00;100868.13;4960596;28;20035;-89
2022/01/10 00:47:49;;;;;;;56.00;27.30;;;;;;;-1.45;100.00;100941.34;4976275;28;20074;-88
2022/01/10 00:50:15;;;;;;;66.63;28.65;;;;;;;-1.15;100.00;100987.53;4960552;28;20035;-88
2022/01/10 00:52:41;;;;;;;63.72;27.73;;;;;;;-1.26;100.00;100983.19;4976614;28;20022;-88
2022/01/10 00:55:11;;;;;;;64.30;27.52;;;;;;;-1.52;100.00;100949.06;4959883;28;20566;-88
2022/01/10 00:57:38;;;;;;;66.35;27.73;;;;;;;-1.78;100.00;100900.78;4975930;28;20037;-88
2022/01/10 01:00:05;;;;;;;62.88;28.98;;;;;;;-1.37;100.00;100976.16;4960191;28;20060;-88
2022/01/10 01:02:33;;;;;;;60.13;28.15;;;;;;;-1.66;100.00;100925.47;4976199;28;20123;-88
2022/01/10 01:05:07;;;;;;;54.17;28.50;;;;;;;-1.56;100.00;100944.13;4960087;28;20112;-88
2022/01/10 01:07:33;;;;;;;58.42;29.35;;;;;;;-1.82;100.00;100915.31;4960210;28;20054;-88
2022/01/10 01:10:30;;;;;;;67.15;28.90;;;;;;;-1.82;100.00;100902.84;4975122;28;20032;-88
2022/01/10 01:15:26;;;;;;;57.72;28.17;;;;;;;-1.41;100.00;100999.50;4961507;28;20038;-88
2022/01/10 01:18:30;;;;;;;59.25;28.35;;;;;;;-1.89;100.00;100932.75;4944933;28;20112;-88
2022/01/10 01:25:57;;;;;;;60.92;27.95;;;;;;;-1.32;100.00;101069.75;4993440;28;20045;-89
2022/01/10 01:28:24;;;;;;;65.45;28.60;;;;;;;-1.86;100.00;100991.00;4976009;28;20022;-89
2022/01/10 01:30:52;;;;;;;66.88;29.42;;;;;;;-2.01;100.00;100955.94;4975562;28;20109;-87
2022/01/10 01:33:18;;;;;;;58.15;29.30;;;;;;;-2.04;100.00;100964.19;4975825;28;20484;-88
2022/01/10 01:35:47;;;;;;;60.58;29.90;;;;;;;-2.03;100.00;100968.53;4975689;28;20092;-88
2022/01/10 01:38:16;;;;;;;63.47;29.70;;;;;;;-2.08;100.00;100966.25;4993330;28;20117;-88
2022/01/10 01:40:49;;;;;;;62.13;29.50;;;;;;;-1.61;100.00;101046.50;4975846;28;20030;-88
2022/01/10 01:43:15;;;;;;;63.53;28.95;;;;;;;-2.09;100.00;100967.22;4975910;28;20117;-88
2022/01/10 01:45:43;;;;;;;66.68;30.35;;;;;;;-1.78;100.00;101016.00;4975592;28;20118;-88
2022/01/10 01:48:09;;;;;;;60.38;30.65;;;;;;;-1.31;100.00;101103.38;4974835;28;20488;-88
2022/01/10 01:50:36;;;;;;;60.55;29.95;;;;;;;-1.32;100.00;101106.19;4975899;28;20026;-88
2022/01/10 01:53:02;;;;;;;63.35;29.63;;;;;;;-1.89;100.00;101023.19;4975723;28;20088;-88
2022/01/10 01:55:30;;;;;;;57.83;29.90;;;;;;;-1.32;100.00;101114.16;4959466;28;20034;-87
2022/01/10 01:57:56;;;;;;;69.07;30.30;;;;;;;-1.33;100.00;101112.47;4993018;28;20030;-89
2022/01/10 02:00:25;;;;;;;64.68;29.83;;;;;;;-1.81;100.00;101045.50;4976038;28;20057;-89
2022/01/10 02:02:52;;;;;;;71.70;30.00;;;;;;;-1.66;100.00;101077.13;4975783;28;20030;-88
2022/01/10 02:05:19;;;;;;;69.43;29.98;;;;;;;-1.36;100.00;101134.88;4975101;28;20435;-89
2022/01/10 02:07:47;;;;;;;67.60;31.17;;;;;;;-1.35;100.00;101130.41;4975707;28;20084;-89
2022/01/10 02:10:17;;;;;;;66.47;30.67;;;;;;;-1.33;100.00;101128.44;4975824;28;20125;-89
2022/01/10 02:12:42;;;;;;;65.63;29.95;;;;;;;-1.71;100.00;101074.00;4944064;28;20033;-89
2022/01/10 02:15:32;;;;;;;70.85;30.35;;;;;;;-1.45;100.00;101112.56;4975765;28;20026;-88
2022/01/10 02:18:00;;;;;;;63.75;30.63;;;;;;;-1.30;100.00;101133.50;4975607;28;20033;-88
2022/01/10 02:20:30;;;;;;;68.38;30.13;;;;;;;-1.50;100.00;101114.75;4975277;28;20050;-88
2022/01/10 02:22:56;;;;;;;70.40;30.88;;;;;;;-1.33;100.00;101141.75;4995901;28;20439;-87
2022/01/10 02:25:21;;;;;;;65.65;31.63;;;;;;;-1.77;100.00;101068.22;4979091;28;20075;-88
2022/01/10 02:27:48;;;;;;;66.40;31.35;;;;;;;-1.33;100.00;101157.72;4978883;28;20415;-88
2022/01/10 02:30:14;;;;;;;68.00;31.23;;;;;;;-1.35;100.00;101147.22;4978785;28;20399;-89
2022/01/10 02:32:43;;;;;;;67.32;31.42;;;;;;;-1.35;100.00;101157.03;4946609;28;20026;-88
2022/01/10 02:35:41;;;;;;;71.72;31.23;;;;;;;-1.71;100.00;101092.59;4962591;28;20035;-88
2022/01/10 02:38:07;;;;;;;63.97;29.90;;;;;;;-1.71;100.00;101085.50;4978630;28;20065;-87
2022/01/10 02:40:33;;;;;;;63.08;30.27;;;;;;;-1.54;100.00;101109.81;4962055;28;20034;-87
2022/01/10 02:43:00;;;;;;;68.90;31.73;;;;;;;-1.46;100.00;101125.97;4962251;28;20487;-87
2022/01/10 02:45:26;;;;;;;66.43;31.92;;;;;;;-1.22;100.00;101175.47;4978205;28;20034;-88
2022/01/10 02:47:52;;;;;;;59.80;31.40;;;;;;;-1.89;100.00;101068.41;4961968;28;20042;-87
2022/01/10 02:50:20;;;;;;;69.18;32.15;;;;;;;-1.15;100.00;101187.25;4962319;28;20026;-88
2022/01/10 02:52:46;;;;;;;69.35;32.03;;;;;;;-1.55;100.00;101129.41;4978042;28;20499;-88
2022/01/10 02:55:13;;;;;;;65.22;31.92;;;;;;;-1.71;100.00;101089.94;4978113;28;20434;-88
2022/01/10 02:57:39;;;;;;;58.33;31.40;;;;;;;-1.71;100.00;101089.94;4978002;28;20072;-88
2022/01/10 03:00:26;;;;;;;64.13;31.13;;;;;;;-1.50;100.00;101137.88;4978485;28;20034;-88
2022/01/10 03:02:53;;;;;;;64.53;30.85;;;;;;;-1.43;100.00;101141.72;4979830;28;20037;-88
2022/01/10 03:05:20;;;;;;;54.20;30.55;;;;;;;-1.54;100.00;101147.09;4966502;28;20042;-87
2022/01/10 03:07:50;;;;;;;65.15;30.77;;;;;;;-1.27;100.00;101182.03;4977905;28;20026;-87
2022/01/10 03:10:16;;;;;;;56.10;29.98;;;;;;;-1.68;100.00;101113.63;4977910;28;20041;-87
2022/01/10 03:12:42;;;;;;;57.60;29.17;;;;;;;-1.67;100.00;101128.63;4961698;28;20376;-88
2022/01/10 03:15:10;;;;;;;56.08;30.17;;;;;;;-1.06;100.00;101215.78;4961237;28;20399;-88
2022/01/10 03:17:36;;;;;;;60.38;29.20;;;;;;;-1.29;100.00;101180.47;4962031;28;20037;-87
2022/01/10 03:20:05;;;;;;;59.88;29.48;;;;;;;-1.47;100.00;101150.91;4977457;28;20518;-88
2022/01/10 03:22:31;;;;;;;62.20;29.00;;;;;;;-1.64;100.00;101123.06;4977567;28;20023;-87
2022/01/10 03:24:58;;;;;;;57.28;29.33;;;;;;;-1.19;100.00;101208.00;4945905;28;20052;-87
2022/01/10 03:27:24;;;;;;;62.67;29.80;;;;;;;-1.01;100.00;101242.88;4977509;28;20054;-88
2022/01/10 03:29:50;;;;;;;52.85;29.05;;;;;;;-1.86;100.00;101118.69;4945600;28;20472;-88
2022/01/10 03:32:16;;;;;;;55.67;29.63;;;;;;;-1.47;100.00;101177.53;4976583;28;20029;-88
2022/01/10 03:34:42;;;;;;;57.15;28.88;;;;;;;-1.30;100.00;101216.91;4945300;28;20504;-88
2022/01/10 03:37:08;;;;;;;51.13;28.08;;;;;;;-1.35;100.00;101213.75;4961150;28;20026;-88
2022/01/10 03:39:35;;;;;;;56.53;28.15;;;;;;;-1.50;100.00;101205.25;4977297;28;20058;-88
2022/01/10 03:42:01;;;;;;;53.40;28.30;;;;;;;-1.15;100.00;101256.50;4961088;28;20089;-88
2022/01/10 03:44:26;;;;;;;53.88;27.35;;;;;;;-1.10;100.00;101272.94;4977345;28;20034;-89
2022/01/10 03:46:56;;;;;;;54.85;28.27;;;;;;;-1.44;100.00;101233.16;4977168;28;20093;-88
2022/01/10 03:49:26;;;;;;;57.85;27.05;;;;;;;-1.13;100.00;101286.53;4960696;28;20062;-89
2022/01/10 03:51:52;;;;;;;52.85;27.63;;;;;;;-1.07;100.00;101309.97;4977119;28;20126;-88
2022/01/10 03:54:17;;;;;;;54.83;28.15;;;;;;;-1.16;100.00;101287.63;4977098;28;20081;-89
2022/01/10 03:56:43;;;;;;;50.17;28.10;;;;;;;-1.08;100.00;101301.16;4961166;28;20019;-89
2022/01/10 03:59:08;;;;;;;60.45;28.35;;;;;;;-1.01;100.00;101308.63;4961508;28;20038;-88
2022/01/10 04:01:38;;;;;;;54.33;27.63;;;;;;;-1.00;100.00;101307.66;4960978;28;20030;-88
2022/01/10 04:04:06;;;;;;;52.75;28.45;;;;;;;-1.04;100.00;101311.56;4976826;28;20033;-89
2022/01/10 04:06:32;;;;;;;55.28;27.67;;;;;;;-1.30;100.00;101280.78;4960815;28;20037;-87
2022/01/10 04:08:57;;;;;;;52.35;29.05;;;;;;;-1.39;100.00;101260.25;4960769;28;20023;-88
2022/01/10 04:11:26;;;;;;;58.08;29.33;;;;;;;-1.68;100.00;101209.41;4960600;28;20063;-88
2022/01/10 04:13:51;;;;;;;61.17;29.15;;;;;;;-1.17;100.00;101277.94;4960992;28;20038;-88
2022/01/10 04:16:17;;;;;;;53.67;29.17;;;;;;;-1.60;100.00;101221.13;4976705;28;20033;-88
2022/01/10 04:18:43;;;;;;;60.75;29.70;;;;;;;-1.60;100.00;101218.47;4960999;28;20097;-88
2022/01/10 04:21:09;;;;;;;53.90;28.88;;;;;;;-1.14;100.00;101288.31;4960582;28;20037;-89
2022/01/10 04:23:34;;;;;;;61.88;30.17;;;;;;;-1.57;100.00;101228.00;4960193;28;20031;-87
2022/01/10 04:26:00;;;;;;;61.33;28.85;;;;;;;-1.12;100.00;101291.72;4960240;28;20026;-88
2022/01/10 04:28:26;;;;;;;64.88;30.20;;;;;;;-0.78;100.00;101347.50;4960478;28;20034;-89
2022/01/10 04:30:51;;;;;;;55.85;30.55;;;;;;;-1.10;100.00;101291.59;4960582;28;20392;-88
2022/01/10 04:33:18;;;;;;;56.15;29.83;;;;;;;-1.39;100.00;101241.59;4976219;28;20070;-87
2022/01/10 04:35:47;;;;;;;63.63;31.23;;;;;;;-1.37;100.00;101237.03;4976293;28;20475;-87
2022/01/10 04:38:15;;;;;;;60.00;29.58;;;;;;;-0.86;100.00;101315.31;4960565;28;20550;-87
2022/01/10 04:40:41;;;;;;;59.72;30.92;;;;;;;-0.88;100.00;101334.09;4944579;28;20057;-88
2022/01/10 04:43:07;;;;;;;55.50;30.77;;;;;;;-0.63;100.00;101374.69;4960257;28;20046;-89
2022/01/10 04:45:33;;;;;;;58.20;29.23;;;;;;;-1.05;100.00;101313.34;4960412;28;20035;-89
2022/01/10 04:47:58;;;;;;;51.15;29.33;;;;;;;-1.09;100.00;101306.63;4960393;28;20116;-89
2022/01/10 04:51:10;;;;;;;64.45;30.98;;;;;;;-1.31;100.00;101281.75;4960508;28;20026;-89
2022/01/10 04:53:10;;;;;;;57.63;29.10;;;;;;;-1.32;100.00;101301.34;4979378;28;20038;-89
2022/01/10 04:55:39;;;;;;;50.97;28.20;;;;;;;-0.68;100.00;101410.69;4976337;28;20060;-89
2022/01/10 04:58:04;;;;;;;55.13;29.02;;;;;;;-0.75;100.00;101397.03;4960334;28;20399;-89
2022/01/10 05:00:30;;;;;;;56.92;29.30;;;;;;;-1.18;100.00;101336.66;4976479;28;20022;-89
2022/01/10 05:02:56;;;;;;;61.45;30.27;;;;;;;-0.63;100.00;101417.31;4944699;28;20053;-88
2022/01/10 05:05:22;;;;;;;56.35;29.52;;;;;;;-0.54;100.00;101437.03;4976825;28;20131;-88
2022/01/10 05:07:47;;;;;;;53.05;29.25;;;;;;;-0.83;100.00;101380.84;4960198;28;20435;-88
2022/01/10 05:10:13;;;;;;;60.25;30.85;;;;;;;-0.51;100.00;101425.28;4960188;28;20084;-88
2022/01/10 05:12:38;;;;;;;54.67;30.27;;;;;;;-1.16;100.00;101324.06;4976098;28;20045;-88
2022/01/10 05:15:05;;;;;;;57.97;30.35;;;;;;;-0.44;100.00;101447.78;4976253;28;20033;-89
2022/01/10 05:17:30;;;;;;;59.95;30.10;;;;;;;-0.80;100.00;101391.22;4959929;28;20085;-89
2022/01/10 05:19:56;;;;;;;53.53;28.42;;;;;;;-1.04;100.00;101354.16;4959933;28;20038;-88
2022/01/10 05:22:22;;;;;;;51.25;28.98;;;;;;;-0.84;100.00;101373.81;4959372;28;20034;-88
2022/01/10 05:24:47;;;;;;;59.72;29.77;;;;;;;-0.87;100.00;101366.94;4975538;28;20022;-88
2022/01/10 05:27:13;;;;;;;60.97;30.67;;;;;;;-1.04;100.00;101354.16;4943201;28;20081;-88
2022/01/10 05:29:38;;;;;;;61.65;29.27;;;;;;;-0.98;100.00;101378.47;4943625;28;20094;-89
2022/01/10 05:32:04;;;;;;;57.67;28.85;;;;;;;-0.27;100.00;101486.34;4943771;28;20037;-88
2022/01/10 05:34:30;;;;;;;56.53;28.90;;;;;;;-0.23;100.00;101482.47;4959232;28;20030;-88
2022/01/10 05:36:56;;;;;;;59.53;30.08;;;;;;;-0.21;100.00;101496.50;4959381;28;20396;-88
2022/01/10 05:39:21;;;;;;;56.25;29.67;;;;;;;-0.56;100.00;101439.84;4959427;28;20034;-88
2022/01/10 05:41:47;;;;;;;56.20;30.13;;;;;;;-0.30;100.00;101489.28;4975481;28;20026;-88
2022/01/10 05:44:15;;;;;;;53.47;30.85;;;;;;;-0.33;100.00;101493.03;4975977;28;20050;-88
2022/01/10 05:46:42;;;;;;;61.10;30.02;;;;;;;-0.89;100.00;101403.50;4976128;28;20034;-89
2022/01/10 05:49:08;;;;;;;53.30;29.95;;;;;;;-0.48;100.00;101459.69;4975933;28;20085;-89
2022/01/10 05:51:36;;;;;;;52.65;30.95;;;;;;;-0.94;100.00;101400.38;4975046;28;20486;-87
2022/01/10 05:54:03;;;;;;;56.22;31.00;;;;;;;-1.09;100.00;101389.19;4960015;28;20554;-88
2022/01/10 05:56:32;;;;;;;52.70;30.33;;;;;;;-0.28;100.00;101517.53;4979405;28;20026;-88
2022/01/10 05:59:01;;;;;;;53.92;30.15;;;;;;;-0.48;100.00;101483.66;4981645;28;20056;-87
2022/01/10 06:01:27;;;;;;;60.53;31.10;;;;;;;-0.96;100.00;101413.81;4984022;28;20053;-88
2022/01/10 06:03:53;;;;;;;52.33;30.00;;;;;;;-0.26;100.00;101523.56;4980983;28;20497;-88
2022/01/10 06:06:18;;;;;;;52.92;31.00;;;;;;;-0.93;100.00;101413.56;4978968;28;20149;-88
2022/01/10 06:08:44;;;;;;;55.67;30.25;;;;;;;-0.44;100.00;101501.09;4978613;28;20168;-88
2022/01/10 06:11:10;;;;;;;59.38;31.15;;;;;;;-0.86;100.00;101429.03;4962884;28;20084;-88
2022/01/10 06:13:36;;;;;;;54.60;30.75;;;;;;;-0.47;100.00;101493.34;4962813;28;20065;-88
2022/01/10 06:16:02;;;;;;;55.92;30.17;;;;;;;-0.40;100.00;101513.19;4978811;28;20030;-87
2022/01/10 06:18:39;;;;;;;59.40;31.30;;;;;;;-0.57;100.00;101482.59;4997119;28;20435;-93
2022/01/10 06:21:33;;;;;;;50.75;30.92;;;;;;;-0.15;100.00;101562.66;4980291;28;20030;-93
2022/01/10 06:24:01;;;;;;;50.30;30.58;;;;;;;-0.81;100.00;101461.47;4996558;28;20065;-89
2022/01/10 06:26:26;;;;;;;55.40;30.15;;;;;;;-0.42;100.00;101520.47;4977992;28;20034;-86
2022/01/10 06:28:52;;;;;;;59.65;30.13;;;;;;;-0.36;100.00;101515.47;4961863;28;20061;-86
2022/01/10 06:31:23;;;;;;;54.65;30.98;;;;;;;-0.46;100.00;101521.69;4946089;28;20037;-86
2022/01/10 06:33:49;;;;;;;57.65;31.45;;;;;;;-0.43;100.00;101516.13;4962678;28;20034;-87
2022/01/10 06:36:14;;;;;;;57.22;31.52;;;;;;;-0.46;100.00;101524.38;4978047;28;20018;-88
2022/01/10 06:38:40;;;;;;;50.35;29.13;;;;;;;-0.38;100.00;101533.44;4962016;28;20395;-90
2022/01/10 06:41:13;;;;;;;52.50;29.92;;;;;;;-0.74;100.00;101484.84;4978421;28;20030;-93
2022/01/10 06:43:41;;;;;;;51.90;30.10;;;;;;;-0.30;100.00;101566.63;4963035;28;20412;-89
2022/01/10 06:46:08;;;;;;;53.78;29.55;;;;;;;-0.07;100.00;101602.91;4961750;28;20125;-91
2022/01/10 06:48:37;;;;;;;46.80;28.65;;;;;;;-0.76;100.00;101488.59;4963334;28;20058;-92
2022/01/10 06:51:07;;;;;;;49.47;28.73;;;;;;;-0.77;100.00;101494.91;4964363;28;20399;-93
2022/01/10 06:53:36;;;;;;;49.63;28.92;;;;;;;-0.26;100.00;101573.41;4963976;28;20030;-88
2022/01/10 06:56:06;;;;;;;51.03;28.67;;;;;;;-0.67;100.00;101519.00;4978991;28;20377;-91
2022/01/10 06:58:34;;;;;;;55.83;29.20;;;;;;;-0.29;100.00;101587.81;4963056;28;20030;-90
2022/01/10 07:01:00;;;;;;;52.53;29.90;;;;;;;-0.43;100.00;101559.63;4977974;28;20022;-90
2022/01/10 07:03:25;;;;;;;49.65;29.20;;;;;;;-0.42;100.00;101571.13;4962426;28;20073;-90
2022/01/10 07:05:51;;;;;;;50.50;28.67;;;;;;;-0.24;100.00;101608.78;4978086;28;20026;-89
2022/01/10 07:08:17;;;;;;;50.50;29.35;;;;;;;-0.59;100.00;101540.50;4961370;28;20036;-90
2022/01/10 07:10:42;;;;;;;48.50;29.05;;;;;;;-0.62;100.00;101551.44;4962002;28;20034;-90
2022/01/10 07:13:08;;;;;;;48.92;29.00;;;;;;;0.05;100.00;101670.41;4961939;28;20534;-90
2022/01/10 07:15:33;;;;;;;49.45;28.50;;;;;;;-0.20;100.00;101620.91;4946227;28;20026;-90
2022/01/10 07:18:04;;;;;;;51.40;28.25;;;;;;;0.01;100.00;101666.28;4961338;28;20026;-89
2022/01/10 07:20:32;;;;;;;48.53;28.20;;;;;;;-0.54;100.00;101584.50;4946090;28;20057;-89
2022/01/10 07:22:57;;;;;;;52.78;28.63;;;;;;;-0.22;100.00;101630.84;4961890;28;20391;-89
2022/01/10 07:25:28;;;;;;;50.78;28.52;;;;;;;-0.58;100.00;101575.03;4977457;28;20026;-89
2022/01/10 07:27:54;;;;;;;50.85;27.45;;;;;;;-0.63;100.00;101581.75;4977526;28;20030;-89
2022/01/10 07:30:19;;;;;;;47.17;27.77;;;;;;;-0.37;100.00;101631.13;4961349;28;20045;-89
2022/01/10 07:32:45;;;;;;;46.38;27.15;;;;;;;-0.16;100.00;101664.16;4977585;28;20030;-90
2022/01/10 07:35:14;;;;;;;49.50;28.92;;;;;;;-0.51;100.00;101619.88;4977303;28;20026;-90
2022/01/10 07:37:39;;;;;;;48.97;28.15;;;;;;;-0.60;100.00;101611.66;4961816;28;20046;-90
2022/01/10 07:40:06;;;;;;;53.75;29.02;;;;;;;-0.58;100.00;101627.53;4976885;28;20061;-90
2022/01/10 07:42:32;;;;;;;50.92;28.02;;;;;;;-0.33;100.00;101665.53;4995077;28;20026;-90
2022/01/10 07:44:57;;;;;;;47.17;28.35;;;;;;;-0.44;100.00;101656.59;4961482;28;20092;-90
2022/01/10 07:47:37;;;;;;;54.70;29.55;;;;;;;-0.36;100.00;101688.81;4977325;28;20041;-90
2022/01/10 07:50:06;;;;;;;49.55;28.60;;;;;;;-0.29;100.00;101701.66;4976931;28;20074;-90
2022/01/10 07:52:32;;;;;;;46.15;28.77;;;;;;;-0.07;100.00;101754.13;4960437;28;20038;-89
2022/01/10 07:54:58;;;;;;;52.60;29.95;;;;;;;-0.68;100.00;101670.03;4960404;28;20571;-89
2022/01/10 07:57:23;;;;;;;49.28;30.33;;;;;;;-0.88;100.00;101639.66;4961042;28;20033;-89
2022/01/10 07:59:49;;;;;;;52.58;29.63;;;;;;;-0.13;100.00;101767.94;4977407;28;20387;-85
2022/01/10 08:02:16;;;;;;;48.60;28.40;;;;;;;-0.39;100.00;101742.38;4973224;28;20471;-86
2022/01/10 08:04:41;;;;;;;52.85;30.20;;;;;;;-0.32;100.00;101752.59;4943388;28;20030;-87
2022/01/10 08:07:10;;;;;;;53.03;29.05;;;;;;;-0.20;100.00;101780.94;4974879;28;20505;-87
2022/01/10 08:09:35;;;;;;;53.70;29.23;;;;;;;-0.43;100.00;101740.09;4976097;28;20026;-86
2022/01/10 08:12:01;;;;;;;51.55;28.30;;;;;;;-0.48;100.00;101731.63;4995131;23;20065;-87
2022/01/10 08:14:29;;;;;;;53.05;29.23;;;;;;;-0.43;100.00;101738.28;4956101;28;20109;-87
2022/01/10 08:16:54;;;;;;;47.50;27.88;;;;;;;-0.49;100.00;101732.56;4956825;28;20113;-86
2022/01/10 08:19:20;;;;;;;51.60;27.92;;;;;;;-0.14;100.00;101799.13;4973877;28;20031;-86
2022/01/10 08:21:46;;;;;;;48.03;25.98;;;;;;;-0.39;100.00;101755.72;4956667;28;20049;-86
2022/01/10 08:24:11;;;;;;;50.38;27.13;;;;;;;-0.52;100.00;101743.50;4973341;28;20027;-86
2022/01/10 08:26:36;;;;;;;45.90;27.02;;;;;;;-0.19;100.00;101804.00;4970684;28;20027;-86
2022/01/10 08:29:08;;;;;;;46.78;26.65;;;;;;;-0.14;100.00;101806.28;4956996;28;20042;-86
2022/01/10 08:31:49;;;;;;;44.97;26.85;;;;;;;-0.05;100.00;101821.56;4974071;28;20486;-86
2022/01/10 08:34:15;;;;;;;47.65;27.65;;;;;;;0.04;100.00;101830.66;4956301;28;20434;-87
2022/01/10 08:36:43;;;;;;;49.55;27.98;;;;;;;0.03;100.00;101824.47;4956862;28;20030;-86
2022/01/10 08:39:09;;;;;;;50.10;26.63;;;;;;;0.20;100.00;101846.28;4957488;28;20486;-86
2022/01/10 08:41:38;;;;;;;43.47;26.23;;;;;;;0.00;100.00;101806.03;4974454;28;20089;-87
2022/01/10 08:44:05;;;;;;;47.38;26.55;;;;;;;0.29;100.00;101846.38;4956517;28;20035;-87
2022/01/10 08:46:31;;;;;;;44.10;25.85;;;;;;;0.39;100.00;101870.53;4939814;28;20031;-87
2022/01/10 08:48:58;;;;;;;40.80;25.63;;;;;;;0.12;100.00;101823.72;4954778;28;20070;-86
2022/01/10 08:51:28;;;;;;;43.28;25.63;;;;;;;0.54;100.00;101881.78;4956494;28;20043;-88
2022/01/10 08:53:54;;;;;;;45.33;25.92;;;;;;;0.46;100.00;101868.22;4956201;28;20549;-87
2022/01/10 08:56:19;;;;;;;40.58;23.92;;;;;;;0.47;100.00;101868.09;4940399;28;20039;-86
2022/01/10 08:58:45;;;;;;;40.97;24.52;;;;;;;0.53;100.00;101874.75;4973686;28;20023;-88
2022/01/10 09:01:11;;;;;;;36.88;21.98;;;;;;;0.09;100.00;101794.63;4956053;28;20395;-87
2022/01/10 09:03:37;;;;;;;39.92;22.33;;;;;;;0.59;100.00;101874.28;4956756;28;20434;-87
2022/01/10 09:06:05;;;;;;;38.35;22.27;;;;;;;0.67;100.00;101889.66;4973082;28;20035;-87
2022/01/10 09:08:34;;;;;;;38.25;22.17;;;;;;;0.44;100.00;101856.81;4938402;28;20058;-88
2022/01/10 09:11:01;;;;;;;36.17;22.05;;;;;;;0.35;100.00;101845.03;4949596;28;20039;-88
2022/01/10 09:13:27;;;;;;;34.75;21.08;;;;;;;0.49;100.00;101859.97;4971369;28;20058;-88
2022/01/10 09:15:55;;;;;;;37.08;22.42;;;;;;;0.68;100.00;101886.03;4972139;28;20042;-87
2022/01/10 09:18:21;;;;;;;36.90;21.42;;;;;;;0.88;100.00;101933.31;4973505;28;20038;-87
2022/01/10 09:20:52;;;;;;;39.08;22.38;;;;;;;0.75;100.00;101891.69;4972446;28;20121;-87
2022/01/10 09:23:17;;;;;;;36.30;21.90;;;;;;;0.87;100.00;101915.59;4971798;28;20034;-87
2022/01/10 09:25:44;;;;;;;37.28;23.23;;;;;;;0.33;100.00;101839.81;4972152;28;20467;-87
2022/01/10 09:28:09;;;;;;;36.85;21.92;;;;;;;0.85;100.00;101919.38;4972092;28;20034;-87
2022/01/10 09:30:34;;;;;;;36.92;21.95;;;;;;;0.65;100.00;101895.13;4973934;28;20038;-88
2022/01/10 09:33:00;;;;;;;36.40;22.92;;;;;;;0.57;100.00;101886.88;4943995;28;20053;-87
2022/01/10 09:35:25;;;;;;;38.55;22.23;;;;;;;0.91;100.00;101926.03;4959670;28;20042;-87
2022/01/10 09:37:51;;;;;;;37.03;21.52;;;;;;;0.84;100.00;101890.94;4959341;28;20043;-89
2022/01/10 09:40:18;;;;;;;36.30;21.70;;;;;;;1.28;100.00;101947.91;4976123;28;20395;-88
2022/01/10 09:42:48;;;;;;;34.40;21.80;;;;;;;1.45;100.00;101957.19;4974589;28;20038;-87
2022/01/10 09:45:13;;;;;;;36.28;21.98;;;;;;;1.57;100.00;101961.50;4943396;28;20101;-87
2022/01/10 09:47:39;;;;;;;38.38;22.20;;;;;;;1.54;100.00;101921.66;4988678;28;20484;-86
2022/01/10 09:50:08;;;;;;;35.15;21.85;;;;;;;1.51;100.00;101900.50;4972601;28;20035;-87
2022/01/10 09:52:34;;;;;;;32.45;21.45;;;;;;;1.42;99.90;101873.69;4961448;28;20022;-86
2022/01/10 09:55:02;;;;;;;34.72;21.27;;;;;;;1.85;100.00;101934.25;4962325;28;20118;-88
2022/01/10 09:57:28;;;;;;;35.05;20.35;;;;;;;2.15;99.77;101957.50;4972832;28;20041;-86
2022/01/10 09:59:59;;;;;;;30.55;20.17;;;;;;;2.12;98.53;101930.19;4956468;29;20035;-87
2022/01/10 10:02:32;;;;;;;31.75;18.98;;;;;;;2.55;98.31;101970.09;4940794;29;20039;-87
2022/01/10 10:05:04;;;;;;;31.08;18.58;;;;;;;2.33;95.77;101920.25;4956469;28;20038;-89
2022/01/10 10:07:35;;;;;;;29.25;18.73;;;;;;;2.59;95.62;101952.78;4957551;28;20138;-88
2022/01/10 10:10:07;;;;;;;26.88;17.50;;;;;;;2.67;93.67;101945.91;4956080;28;20126;-87
2022/01/10 10:12:37;;;;;;;27.65;16.55;;;;;;;2.24;93.24;101903.19;4968946;28;20066;-88
2022/01/10 10:15:09;;;;;;;29.15;17.50;;;;;;;2.25;93.96;101912.06;4976670;28;20053;-87
2022/01/10 10:17:40;;;;;;;28.05;17.75;;;;;;;2.32;94.59;101918.56;4976536;28;20038;-87
2022/01/10 10:20:08;;;;;;;25.38;16.25;;;;;;;2.73;93.29;101966.78;4958975;28;20419;-87
2022/01/10 10:22:34;;;;;;;28.35;17.33;;;;;;;3.21;93.16;102033.09;4976224;28;20046;-87
2022/01/10 10:24:59;;;;;;;27.17;16.48;;;;;;;3.01;92.18;101973.19;4943258;28;20039;-87
2022/01/10 10:27:25;;;;;;;27.52;17.05;;;;;;;3.57;92.06;102032.59;4975711;28;20471;-87
2022/01/10 10:29:50;;;;;;;25.50;16.85;;;;;;;3.54;91.06;101987.25;4943315;28;20086;-87
2022/01/10 10:32:16;;;;;;;27.80;17.75;;;;;;;3.81;89.62;102021.41;4958436;28;20479;-87
2022/01/10 10:34:43;;;;;;;24.73;15.75;;;;;;;3.48;87.95;101954.63;4943063;28;20463;-87
2022/01/10 10:37:13;;;;;;;24.42;15.85;;;;;;;3.17;88.82;101945.84;4977845;28;20034;-87
2022/01/10 10:39:41;;;;;;;25.77;16.15;;;;;;;3.74;90.61;102047.16;4958639;28;20117;-87
2022/01/10 10:42:10;;;;;;;25.20;15.80;;;;;;;3.65;88.59;102027.38;4954911;28;20035;-87
2022/01/10 10:44:37;;;;;;;27.38;16.58;;;;;;;3.86;89.16;102054.91;4938094;29;20028;-88
2022/01/10 10:47:03;;;;;;;26.55;16.42;;;;;;;3.87;88.77;102045.03;4953551;28;20034;-87
2022/01/10 10:49:34;;;;;;;25.83;16.10;;;;;;;4.08;89.09;102060.16;4938879;29;20391;-87
2022/01/10 10:52:03;;;;;;;25.48;15.93;;;;;;;4.28;89.08;102061.81;4956028;28;20124;-87
2022/01/10 10:54:33;;;;;;;23.85;15.93;;;;;;;4.33;87.39;102035.34;4938649;29;20463;-87
2022/01/10 10:57:05;;;;;;;26.33;15.77;;;;;;;3.79;87.84;101975.09;4922476;28;20039;-87
2022/01/10 10:59:34;;;;;;;25.45;16.55;;;;;;;3.78;88.48;101979.63;4938836;29;20031;-87
2022/01/10 11:02:02;;;;;;;26.80;15.43;;;;;;;4.13;87.92;102045.28;4955728;28;20035;-87
2022/01/10 11:04:30;;;;;;;26.70;16.17;;;;;;;3.72;88.74;101998.13;4938248;29;20031;-87
2022/01/10 11:06:58;;;;;;;26.67;17.23;;;;;;;4.04;89.41;102068.50;4922093;29;20106;-88
2022/01/10 11:09:25;;;;;;;28.25;16.30;;;;;;;3.64;89.23;102009.56;4955843;28;20031;-88
2022/01/10 11:11:54;;;;;;;29.65;17.13;;;;;;;4.04;89.99;102081.91;4955489;28;20047;-88
2022/01/10 11:14:22;;;;;;;28.33;17.23;;;;;;;4.08;89.36;102082.47;4950883;29;20039;-88